createdAt,value
2019-06-15T00:00:22.975Z,99772
2019-06-15T00:02:51.830Z,99769
2019-06-15T00:05:20.711Z,99764
2019-06-15T00:07:50.489Z,99755
2019-06-15T00:10:19.349Z,99756
2019-06-15T00:12:48.194Z,99747
2019-06-15T00:15:17.637Z,99751
2019-06-15T00:17:46.465Z,99767
2019-06-15T00:20:15.296Z,99737
2019-06-15T00:22:44.127Z,99751
2019-06-15T00:25:13.477Z,99754
2019-06-15T00:27:42.316Z,99748
2019-06-15T00:30:11.157Z,99745
2019-06-15T00:32:40.226Z,99739
2019-06-15T00:35:09.070Z,99744
2019-06-15T00:37:39.243Z,99738
2019-06-15T00:40:07.977Z,99746
2019-06-15T00:42:36.824Z,99757
2019-06-15T00:45:05.814Z,99751
2019-06-15T00:47:35.494Z,99766
2019-06-15T00:50:05.044Z,99770
2019-06-15T00:52:33.927Z,99779
2019-06-15T00:55:04.047Z,99771
2019-06-15T00:57:32.824Z,99779
2019-06-15T01:00:01.670Z,99771
2019-06-15T01:02:30.527Z,99772
2019-06-15T01:04:59.360Z,99765
2019-06-15T01:07:28.203Z,99767
2019-06-15T01:09:57.309Z,99749
2019-06-15T01:12:26.311Z,99738
2019-06-15T01:14:55.197Z,99734
2019-06-15T01:17:24.203Z,99731
2019-06-15T01:19:53.034Z,99719
2019-06-15T01:22:21.867Z,99721
2019-06-15T01:25:04.694Z,99713
2019-06-15T01:27:19.618Z,99697
2019-06-15T01:29:48.446Z,99691
2019-06-15T01:32:17.309Z,99691
2019-06-15T01:34:46.141Z,99691
2019-06-15T01:37:16.768Z,99680
2019-06-15T01:39:46.345Z,99684
2019-06-15T01:42:15.176Z,99678
2019-06-15T01:44:44.525Z,99678
2019-06-15T01:47:13.357Z,99672
2019-06-15T01:49:43.362Z,99668
2019-06-15T01:52:12.227Z,99677
2019-06-15T01:54:41.070Z,99678
2019-06-15T01:57:09.902Z,99669
2019-06-15T01:59:38.740Z,99674
2019-06-15T02:02:07.606Z,99674
2019-06-15T02:04:36.445Z,99676
2019-06-15T02:07:05.709Z,99680
2019-06-15T02:09:34.543Z,99673
2019-06-15T02:12:03.378Z,99673
2019-06-15T02:14:32.999Z,99669
2019-06-15T02:17:03.074Z,99669
2019-06-15T02:19:31.902Z,99675
2019-06-15T02:22:01.480Z,99678
2019-06-15T02:24:30.330Z,99671
2019-06-15T02:26:59.166Z,99672
2019-06-15T02:29:28.003Z,99690
2019-06-15T02:31:57.531Z,99686
2019-06-15T02:34:26.914Z,99681
2019-06-15T02:36:55.700Z,99689
2019-06-15T02:39:24.522Z,99687
2019-06-15T02:41:53.361Z,99703
2019-06-15T02:44:22.202Z,99707
2019-06-15T02:46:51.280Z,99711
2019-06-15T02:49:20.124Z,99706
2019-06-15T02:51:48.965Z,99700
2019-06-15T02:54:18.249Z,99694
2019-06-15T02:56:47.910Z,99696
2019-06-15T02:59:17.966Z,99704
2019-06-15T03:01:46.847Z,99713
2019-06-15T03:04:16.423Z,99726
2019-06-15T03:06:46.006Z,99740
2019-06-15T03:09:15.660Z,99754
2019-06-15T03:11:44.496Z,99765
2019-06-15T03:14:13.345Z,99771
2019-06-15T03:16:42.184Z,99796
2019-06-15T03:19:11.483Z,99811
2019-06-15T03:21:40.302Z,99819
2019-06-15T03:24:09.815Z,99831
2019-06-15T03:26:40.150Z,99827
2019-06-15T03:29:09.433Z,99855
2019-06-15T03:31:38.281Z,99908
2019-06-15T03:34:08.121Z,99929
2019-06-15T03:36:37.712Z,99932
2019-06-15T03:39:06.577Z,99916
2019-06-15T03:41:35.393Z,99919
2019-06-15T03:44:05.266Z,99909
2019-06-15T03:46:34.092Z,99924
2019-06-15T03:49:02.930Z,99940
2019-06-15T03:51:31.754Z,99933
2019-06-15T03:54:00.596Z,99947
2019-06-15T03:56:29.446Z,99945
2019-06-15T03:58:58.288Z,99936
2019-06-15T04:04:07.115Z,99935
2019-06-15T04:06:35.972Z,99936
2019-06-15T04:09:04.830Z,99936
2019-06-15T04:11:33.675Z,99930
2019-06-15T04:14:03.267Z,99942
2019-06-15T04:16:32.846Z,99939
2019-06-15T04:19:02.305Z,99938
2019-06-15T04:21:31.126Z,99949
2019-06-15T04:24:00.563Z,99954
2019-06-15T04:26:36.121Z,99948
2019-06-15T04:28:58.247Z,99962
2019-06-15T04:31:27.109Z,99965
2019-06-15T04:33:55.944Z,99963
2019-06-15T04:36:24.775Z,99982
2019-06-15T04:38:53.606Z,99984
2019-06-15T04:41:22.449Z,99976
2019-06-15T04:43:51.719Z,99975
2019-06-15T04:46:20.474Z,99969
2019-06-15T04:48:49.318Z,99986
2019-06-15T04:51:18.170Z,99992
2019-06-15T04:53:47.008Z,100002
2019-06-15T04:56:15.926Z,100002
2019-06-15T04:58:44.788Z,100015
2019-06-15T05:01:13.643Z,100017
2019-06-15T05:03:42.502Z,100017
2019-06-15T05:06:12.145Z,100012
2019-06-15T05:08:40.999Z,100012
2019-06-15T05:11:10.586Z,100021
2019-06-15T05:13:39.530Z,100027
2019-06-15T05:16:08.275Z,100023
2019-06-15T05:18:37.109Z,100023
2019-06-15T05:21:05.959Z,100041
2019-06-15T05:23:35.602Z,100039
2019-06-15T05:26:05.032Z,100055
2019-06-15T05:28:33.890Z,100052
2019-06-15T05:31:02.746Z,100057
2019-06-15T05:33:32.114Z,100046
2019-06-15T05:36:00.511Z,100060
2019-06-15T05:38:29.386Z,100043
2019-06-15T05:40:58.230Z,100050
2019-06-15T05:43:27.087Z,100047
2019-06-15T05:45:55.936Z,100043
2019-06-15T05:48:24.785Z,100040
2019-06-15T05:50:54.380Z,100039
2019-06-15T05:53:23.970Z,100050
2019-06-15T05:55:52.807Z,100057
2019-06-15T05:58:22.985Z,100073
2019-06-15T06:00:50.512Z,100082
2019-06-15T06:03:19.398Z,100097
2019-06-15T06:05:48.210Z,100105
2019-06-15T06:08:17.045Z,100126
2019-06-15T06:10:45.894Z,100121
2019-06-15T06:13:18.596Z,100121
2019-06-15T06:15:47.551Z,100137
2019-06-15T06:18:16.403Z,100134
2019-06-15T06:20:45.343Z,100135
2019-06-15T06:23:14.290Z,100140
2019-06-15T06:25:43.035Z,100141
2019-06-15T06:28:11.866Z,100143
2019-06-15T06:30:40.719Z,100152
2019-06-15T06:33:10.482Z,100144
2019-06-15T06:35:39.301Z,100153
2019-06-15T06:38:08.146Z,100158
2019-06-15T06:40:36.982Z,100149
2019-06-15T06:43:05.835Z,100162
2019-06-15T06:45:34.708Z,100166
2019-06-15T06:48:03.552Z,100170
2019-06-15T06:50:32.424Z,100160
2019-06-15T06:53:01.294Z,100165
2019-06-15T06:55:30.147Z,100168
2019-06-15T06:58:00.250Z,100163
2019-06-15T07:00:27.833Z,100168
2019-06-15T07:02:56.667Z,100168
2019-06-15T07:05:25.506Z,100180
2019-06-15T07:07:54.393Z,100182
2019-06-15T07:10:23.706Z,100194
2019-06-15T07:12:54.482Z,100196
2019-06-15T07:15:23.337Z,100205
2019-06-15T07:17:53.146Z,100207
2019-06-15T07:20:21.998Z,100202
2019-06-15T07:22:50.832Z,100208
2019-06-15T07:25:19.695Z,100204
2019-06-15T07:27:49.296Z,100215
2019-06-15T07:30:18.160Z,100219
2019-06-15T07:32:47.168Z,100232
2019-06-15T07:35:16.034Z,100221
2019-06-15T07:37:44.890Z,100216
2019-06-15T07:40:13.726Z,100229
2019-06-15T07:42:42.571Z,100238
2019-06-15T07:45:11.428Z,100245
2019-06-15T07:47:40.295Z,100246
2019-06-15T07:50:09.140Z,100265
2019-06-15T07:52:37.996Z,100250
2019-06-15T07:55:08.316Z,100251
2019-06-15T07:57:37.151Z,100262
2019-06-15T08:00:06.928Z,100265
2019-06-15T08:02:36.720Z,100274
2019-06-15T08:05:06.398Z,100286
2019-06-15T08:07:35.238Z,100284
2019-06-15T08:10:04.104Z,100284
2019-06-15T08:12:33.901Z,100305
2019-06-15T08:15:02.766Z,100294
2019-06-15T08:17:31.583Z,100299
2019-06-15T08:20:00.922Z,100295
2019-06-15T08:22:29.760Z,100310
2019-06-15T08:24:58.939Z,100308
2019-06-15T08:27:27.652Z,100309
2019-06-15T08:29:57.624Z,100308
2019-06-15T08:32:26.083Z,100307
2019-06-15T08:34:55.679Z,100314
2019-06-15T08:37:29.196Z,100323
2019-06-15T08:39:54.142Z,100333
2019-06-15T08:42:22.996Z,100339
2019-06-15T08:44:52.789Z,100337
2019-06-15T08:47:22.482Z,100339
2019-06-15T08:49:51.332Z,100338
2019-06-15T08:52:20.303Z,100343
2019-06-15T08:54:49.142Z,100344
2019-06-15T08:57:18.001Z,100351
2019-06-15T08:59:46.869Z,100352
2019-06-15T09:02:15.717Z,100347
2019-06-15T09:04:44.556Z,100350
2019-06-15T09:07:14.722Z,100359
2019-06-15T09:09:43.580Z,100362
2019-06-15T09:12:12.429Z,100364
2019-06-15T09:14:42.321Z,100387
2019-06-15T09:17:11.916Z,100378
2019-06-15T09:19:40.824Z,100379
2019-06-15T09:22:10.426Z,100381
2019-06-15T09:24:39.533Z,100383
2019-06-15T09:27:08.382Z,100379
2019-06-15T09:29:37.976Z,100388
2019-06-15T09:32:06.833Z,100392
2019-06-15T09:34:36.440Z,100394
2019-06-15T09:37:05.278Z,100391
2019-06-15T09:39:34.124Z,100386
2019-06-15T09:42:03.006Z,100390
2019-06-15T09:44:31.858Z,100387
2019-06-15T09:47:00.717Z,100389
2019-06-15T09:49:29.547Z,100387
2019-06-15T09:51:58.410Z,100391
2019-06-15T09:54:28.077Z,100396
2019-06-15T09:56:56.091Z,100409
2019-06-15T09:59:26.315Z,100406
2019-06-15T10:01:53.823Z,100409
2019-06-15T10:04:22.662Z,100406
2019-06-15T10:06:52.304Z,100408
2019-06-15T10:09:21.892Z,100419
2019-06-15T10:11:50.732Z,100429
2019-06-15T10:15:03.556Z,100423
2019-06-15T10:17:32.400Z,100433
2019-06-15T10:20:02.019Z,100432
2019-06-15T10:22:31.607Z,100425
2019-06-15T10:25:00.455Z,100424
2019-06-15T10:27:29.293Z,100427
2019-06-15T10:29:58.158Z,100428
2019-06-15T10:32:26.988Z,100428
2019-06-15T10:34:56.579Z,100429
2019-06-15T10:37:25.435Z,100433
2019-06-15T10:39:54.274Z,100432
2019-06-15T10:42:23.847Z,100425
2019-06-15T10:44:52.719Z,100434
2019-06-15T10:47:21.565Z,100424
2019-06-15T10:49:50.430Z,100429
2019-06-15T10:52:19.317Z,100438
2019-06-15T10:54:48.104Z,100437
2019-06-15T10:57:16.983Z,100452
2019-06-15T10:59:56.830Z,100450
2019-06-15T11:02:14.693Z,100448
2019-06-15T11:04:43.569Z,100454
2019-06-15T11:07:13.206Z,100445
2019-06-15T11:09:42.017Z,100453
2019-06-15T11:12:23.247Z,100440
2019-06-15T11:14:52.106Z,100430
2019-06-15T11:17:20.957Z,100442
2019-06-15T11:19:49.843Z,100431
2019-06-15T11:22:18.704Z,100440
2019-06-15T11:24:48.302Z,100437
2019-06-15T11:27:17.890Z,100442
2019-06-15T11:29:46.758Z,100449
2019-06-15T11:32:15.614Z,100453
2019-06-15T11:34:44.469Z,100454
2019-06-15T11:37:13.328Z,100464
2019-06-15T11:39:42.151Z,100469
2019-06-15T11:42:11.009Z,100457
2019-06-15T11:44:39.857Z,100456
2019-06-15T11:47:08.695Z,100466
2019-06-15T11:49:37.562Z,100460
2019-06-15T11:52:06.397Z,100462
2019-06-15T11:54:35.259Z,100454
2019-06-15T11:57:04.084Z,100456
2019-06-15T11:59:32.930Z,100461
2019-06-15T12:02:01.816Z,100452
2019-06-15T12:04:30.669Z,100452
2019-06-15T12:07:00.254Z,100451
2019-06-15T12:09:29.092Z,100447
2019-06-15T12:11:57.925Z,100450
2019-06-15T12:14:26.774Z,100451
2019-06-15T12:16:55.618Z,100449
2019-06-15T12:19:25.214Z,100447
2019-06-15T12:21:54.070Z,100443
2019-06-15T12:24:22.916Z,100443
2019-06-15T12:26:51.785Z,100443
2019-06-15T12:29:21.370Z,100434
2019-06-15T12:31:50.225Z,100445
2019-06-15T12:34:21.111Z,100443
2019-06-15T12:36:48.660Z,100436
2019-06-15T12:39:17.501Z,100444
2019-06-15T12:41:46.382Z,100444
2019-06-15T12:44:15.248Z,100434
2019-06-15T12:46:44.104Z,100426
2019-06-15T12:49:13.552Z,100427
2019-06-15T12:51:42.400Z,100426
2019-06-15T12:54:11.237Z,100433
2019-06-15T12:56:40.108Z,100428
2019-06-15T12:59:08.959Z,100421
2019-06-15T13:01:37.796Z,100423
2019-06-15T13:04:07.392Z,100427
2019-06-15T13:06:36.336Z,100426
2019-06-15T13:09:05.142Z,100427
2019-06-15T13:11:33.965Z,100430
2019-06-15T13:14:03.565Z,100421
2019-06-15T13:16:39.507Z,100424
2019-06-15T13:19:01.260Z,100418
2019-06-15T13:21:30.832Z,100426
2019-06-15T13:23:59.663Z,100421
2019-06-15T13:26:28.510Z,100430
2019-06-15T13:28:57.359Z,100434
2019-06-15T13:31:26.213Z,100428
2019-06-15T13:33:55.056Z,100424
2019-06-15T13:36:23.907Z,100418
2019-06-15T13:38:52.775Z,100423
2019-06-15T13:41:24.493Z,100425
2019-06-15T13:43:51.241Z,100420
2019-06-15T13:46:20.087Z,100423
2019-06-15T13:48:49.123Z,100421
2019-06-15T13:51:17.970Z,100415
2019-06-15T13:53:47.118Z,100415
2019-06-15T13:56:15.958Z,100423
2019-06-15T13:58:44.910Z,100420
2019-06-15T14:01:13.706Z,100416
2019-06-15T14:03:42.545Z,100420
2019-06-15T14:06:11.372Z,100421
2019-06-15T14:08:40.213Z,100423
2019-06-15T14:11:09.061Z,100425
2019-06-15T14:13:37.922Z,100425
2019-06-15T14:16:06.764Z,100427
2019-06-15T14:18:35.626Z,100418
2019-06-15T14:21:04.468Z,100410
2019-06-15T14:23:33.294Z,100417
2019-06-15T14:26:02.146Z,100420
2019-06-15T14:28:30.974Z,100423
2019-06-15T14:30:59.895Z,100424
2019-06-15T14:33:28.917Z,100418
2019-06-15T14:35:57.763Z,100414
2019-06-15T14:38:27.354Z,100410
2019-06-15T14:42:46.916Z,100413
2019-06-15T14:45:15.740Z,100411
2019-06-15T14:47:44.590Z,100413
2019-06-15T14:50:13.450Z,100414
2019-06-15T14:52:42.316Z,100412
2019-06-15T14:55:11.187Z,100403
2019-06-15T14:57:40.040Z,100394
2019-06-15T15:00:09.291Z,100409
2019-06-15T15:02:37.718Z,100407
2019-06-15T15:05:06.963Z,100410
2019-06-15T15:07:36.829Z,100413
2019-06-15T15:10:07.060Z,100406
2019-06-15T15:12:33.130Z,100406
2019-06-15T15:15:02.016Z,100404
2019-06-15T15:17:30.803Z,100395
2019-06-15T15:20:03.761Z,100400
2019-06-15T15:22:29.293Z,100404
2019-06-15T15:24:58.108Z,100393
2019-06-15T15:27:27.396Z,100384
2019-06-15T15:29:57.017Z,100380
2019-06-15T15:32:30.521Z,100383
2019-06-15T15:34:55.835Z,100370
2019-06-15T15:37:22.355Z,100368
2019-06-15T15:39:51.931Z,100373
2019-06-15T15:42:20.787Z,100372
2019-06-15T15:44:49.626Z,100371
2019-06-15T15:47:19.223Z,100375
2019-06-15T15:49:48.037Z,100359
2019-06-15T15:52:17.131Z,100363
2019-06-15T15:54:46.804Z,100355
2019-06-15T15:57:17.207Z,100360
2019-06-15T15:59:46.674Z,100362
2019-06-15T16:02:13.017Z,100362
2019-06-15T16:04:41.853Z,100367
2019-06-15T16:07:10.739Z,100371
2019-06-15T16:09:39.588Z,100369
2019-06-15T16:12:08.573Z,100366
2019-06-15T16:14:37.400Z,100376
2019-06-15T16:17:06.681Z,100375
2019-06-15T16:19:35.784Z,100363
2019-06-15T16:22:04.621Z,100369
2019-06-15T16:24:34.219Z,100360
2019-06-15T16:27:03.056Z,100360
2019-06-15T16:29:31.899Z,100362
2019-06-15T16:32:00.735Z,100358
2019-06-15T16:34:29.590Z,100354
2019-06-15T16:36:58.432Z,100347
2019-06-15T16:39:27.292Z,100351
2019-06-15T16:41:56.247Z,100352
2019-06-15T16:44:25.011Z,100345
2019-06-15T16:46:53.809Z,100347
2019-06-15T16:49:22.657Z,100348
2019-06-15T16:51:51.535Z,100349
2019-06-15T16:54:21.100Z,100354
2019-06-15T16:56:49.945Z,100344
2019-06-15T16:59:18.797Z,100350
2019-06-15T17:01:48.378Z,100358
2019-06-15T17:04:17.212Z,100362
2019-06-15T17:06:46.162Z,100368
2019-06-15T17:09:16.903Z,100381
2019-06-15T17:11:43.735Z,100385
2019-06-15T17:14:13.179Z,100383
2019-06-15T17:16:42.004Z,100383
2019-06-15T17:19:10.893Z,100377
2019-06-15T17:21:40.421Z,100383
2019-06-15T17:24:10.060Z,100394
2019-06-15T17:26:40.653Z,100383
2019-06-15T17:29:09.528Z,100386
2019-06-15T17:31:38.331Z,100378
2019-06-15T17:34:07.409Z,100388
2019-06-15T17:36:36.776Z,100374
2019-06-15T17:39:04.935Z,100382
2019-06-15T17:41:36.627Z,100385
2019-06-15T17:44:06.130Z,100376
2019-06-15T17:46:32.963Z,100372
2019-06-15T17:49:01.821Z,100369
2019-06-15T17:51:31.414Z,100369
2019-06-15T17:54:00.248Z,100370
2019-06-15T17:56:29.113Z,100369
2019-06-15T17:58:58.852Z,100368
2019-06-15T18:01:27.687Z,100374
2019-06-15T18:03:58.126Z,100362
2019-06-15T18:06:26.839Z,100367
2019-06-15T18:08:54.437Z,100365
2019-06-15T18:11:23.277Z,100360
2019-06-15T18:13:52.879Z,100359
2019-06-15T18:16:21.707Z,100364
2019-06-15T18:18:50.574Z,100364
2019-06-15T18:21:19.454Z,100361
2019-06-15T18:23:49.036Z,100359
2019-06-15T18:26:17.909Z,100364
2019-06-15T18:28:46.971Z,100360
2019-06-15T18:31:16.298Z,100363
2019-06-15T18:33:47.116Z,100360
2019-06-15T18:36:13.272Z,100374
2019-06-15T18:38:42.138Z,100372
2019-06-15T18:41:10.995Z,100379
2019-06-15T18:43:39.847Z,100395
2019-06-15T18:46:08.710Z,100387
2019-06-15T18:48:37.578Z,100385
2019-06-15T18:51:07.588Z,100384
2019-06-15T18:53:38.928Z,100391
2019-06-15T18:56:04.092Z,100392
2019-06-15T18:58:32.940Z,100388
2019-06-15T19:01:01.817Z,100384
2019-06-15T19:03:31.355Z,100388
2019-06-15T19:06:00.224Z,100385
2019-06-15T19:08:29.528Z,100390
2019-06-15T19:10:58.484Z,100381
2019-06-15T19:13:27.237Z,100382
2019-06-15T19:15:57.206Z,100389
2019-06-15T19:18:26.105Z,100384
2019-06-15T19:20:56.245Z,100387
2019-06-15T19:23:23.400Z,100395
2019-06-15T19:25:52.236Z,100390
2019-06-15T19:28:21.707Z,100389
2019-06-15T19:30:50.534Z,100392
2019-06-15T19:33:19.371Z,100397
2019-06-15T19:35:48.235Z,100394
2019-06-15T19:38:17.077Z,100392
2019-06-15T19:40:46.213Z,100396
2019-06-15T19:43:16.258Z,100400
2019-06-15T19:45:43.711Z,100395
2019-06-15T19:48:12.548Z,100396
2019-06-15T19:50:41.409Z,100405
2019-06-15T19:53:10.301Z,100414
2019-06-15T19:55:39.104Z,100414
2019-06-15T19:58:07.998Z,100413
2019-06-15T20:00:37.091Z,100417
2019-06-15T20:03:07.061Z,100411
2019-06-15T20:05:36.938Z,100423
2019-06-15T20:08:06.728Z,100430
2019-06-15T20:10:36.730Z,100434
2019-06-15T20:13:02.440Z,100442
2019-06-15T20:15:31.293Z,100454
2019-06-15T20:18:00.141Z,100445
2019-06-15T20:20:29.131Z,100435
2019-06-15T20:22:57.850Z,100440
2019-06-15T20:25:26.955Z,100439
2019-06-15T20:27:56.372Z,100444
2019-06-15T20:30:24.491Z,100434
2019-06-15T20:32:53.355Z,100435
2019-06-15T20:35:22.189Z,100431
2019-06-15T20:37:51.072Z,100434
2019-06-15T20:40:20.649Z,100438
2019-06-15T20:42:49.544Z,100443
2019-06-15T20:45:18.374Z,100436
2019-06-15T20:47:47.927Z,100436
2019-06-15T20:50:27.262Z,100439
2019-06-15T20:52:47.122Z,100452
2019-06-15T20:55:16.115Z,100455
2019-06-15T20:57:42.681Z,100461
2019-06-15T21:00:11.510Z,100467
2019-06-15T21:02:40.380Z,100470
2019-06-15T21:05:09.965Z,100481
2019-06-15T21:07:38.824Z,100493
2019-06-15T21:10:07.656Z,100496
2019-06-15T21:12:37.715Z,100499
2019-06-15T21:15:07.293Z,100503
2019-06-15T21:17:37.070Z,100516
2019-06-15T21:20:06.717Z,100516
2019-06-15T21:22:34.180Z,100519
2019-06-15T21:25:03.039Z,100519
2019-06-15T21:27:31.900Z,100525
2019-06-15T21:30:00.750Z,100532
2019-06-15T21:32:29.622Z,100528
2019-06-15T21:34:59.217Z,100521
2019-06-15T21:37:28.813Z,100522
2019-06-15T21:39:57.679Z,100522
2019-06-15T21:42:26.625Z,100523
2019-06-15T21:44:56.217Z,100523
2019-06-15T21:47:26.068Z,100521
2019-06-15T21:49:53.083Z,100525
2019-06-15T21:52:22.720Z,100533
2019-06-15T21:54:51.566Z,100535
2019-06-15T21:57:21.142Z,100546
2019-06-15T21:59:49.973Z,100558
2019-06-15T22:02:20.130Z,100561
2019-06-15T22:04:48.403Z,100563
2019-06-15T22:07:17.243Z,100566
2019-06-15T22:09:47.019Z,100572
2019-06-15T22:12:16.308Z,100579
2019-06-15T22:14:46.628Z,100581
2019-06-15T22:17:13.338Z,100583
2019-06-15T22:19:42.204Z,100594
2019-06-15T22:22:11.039Z,100601
2019-06-15T22:24:39.912Z,100606
2019-06-15T22:27:08.733Z,100612
2019-06-15T22:29:37.569Z,100616
2019-06-15T22:32:06.984Z,100605
2019-06-15T22:34:36.334Z,100615
2019-06-15T22:37:06.673Z,100608
2019-06-15T22:39:32.938Z,100608
2019-06-15T22:42:01.788Z,100612
2019-06-15T22:44:31.375Z,100611
2019-06-15T22:47:00.950Z,100613
2019-06-15T22:49:29.798Z,100619
2019-06-15T22:51:58.640Z,100616
2019-06-15T22:54:27.473Z,100617
2019-06-15T22:56:57.069Z,100617
2019-06-15T22:59:26.056Z,100620
2019-06-15T23:01:57.374Z,100622
2019-06-15T23:04:23.629Z,100627
2019-06-15T23:06:52.456Z,100623
2019-06-15T23:09:21.303Z,100623
2019-06-15T23:11:50.750Z,100624
2019-06-15T23:14:19.593Z,100630
2019-06-15T23:16:48.454Z,100632
2019-06-15T23:19:17.386Z,100638
2019-06-15T23:21:46.379Z,100653
2019-06-15T23:24:16.609Z,100645
2019-06-15T23:26:46.056Z,100658
2019-06-15T23:29:13.543Z,100663
2019-06-15T23:31:42.385Z,100668
2019-06-15T23:34:11.237Z,100666
2019-06-15T23:36:53.158Z,100664
2019-06-15T23:39:08.942Z,100673
2019-06-15T23:41:37.774Z,100675
2019-06-15T23:44:06.610Z,100681
2019-06-15T23:46:36.251Z,100686
2019-06-15T23:49:06.961Z,100683
2019-06-15T23:51:33.874Z,100690
2019-06-15T23:54:02.751Z,100692
2019-06-15T23:56:31.605Z,100689
2019-06-15T23:59:00.448Z,100695
